Time,TemperatureF,DewpointF,PressureIn,WindDirection,WindDirectionDegrees,WindSpeedMPH,WindSpeedGustMPH,Humidity,HourlyPrecipIn,Conditions,Clouds,dailyrainin,SoftwareType,DateUTC
2013-11-21 00:00:00,32.6,28.3,30.53,North,5,1.0,3.0,84,0.00,,---,0.00,VWS V14.01,2013-11-21 05:00:00,
2013-11-21 00:01:00,32.6,28.3,30.53,North,5,0.0,2.0,84,0.00,,---,0.00,VWS V14.01,2013-11-21 05:01:00,
2013-11-21 00:06:00,32.6,28.3,30.52,North,5,0.0,4.0,84,0.00,,---,0.00,VWS V14.01,2013-11-21 05:06:00,
2013-11-21 00:11:00,32.6,28.6,30.52,North,11,2.0,4.0,85,0.00,,---,0.00,VWS V14.01,2013-11-21 05:11:00,
2013-11-21 00:16:00,32.7,28.7,30.53,NNW,347,0.0,4.0,85,0.00,,---,0.00,VWS V14.01,2013-11-21 05:16:00,
2013-11-21 00:21:00,32.8,28.5,30.52,North,5,1.0,4.0,84,0.00,,---,0.00,VWS V14.01,2013-11-21 05:21:00,
2013-11-21 00:26:00,32.8,28.5,30.52,North,5,0.0,4.0,84,0.00,,---,0.00,VWS V14.01,2013-11-21 05:26:00,
2013-11-21 00:30:00,32.8,28.5,30.52,North,5,0.0,4.0,84,0.00,,---,0.00,VWS V14.01,2013-11-21 05:30:00,
2013-11-21 00:31:00,32.8,28.5,30.52,North,5,0.0,0.0,84,0.00,,---,0.00,VWS V14.01,2013-11-21 05:31:00,
2013-11-21 00:36:00,32.7,28.4,30.52,North,5,0.0,2.0,84,0.00,,---,0.00,VWS V14.01,2013-11-21 05:36:00,
2013-11-21 00:41:00,32.7,28.4,30.52,North,5,0.0,2.0,84,0.00,,---,0.00,VWS V14.01,2013-11-21 05:41:00,
2013-11-21 00:46:00,32.7,28.4,30.52,NNW,340,1.0,3.0,84,0.00,,---,0.00,VWS V14.01,2013-11-21 05:46:00,
2013-11-21 00:51:00,32.9,28.9,30.52,NNW,334,0.0,3.0,85,0.00,,---,0.00,VWS V14.01,2013-11-21 05:51:00,
2013-11-21 00:56:00,33.0,29.0,30.52,NNW,345,1.0,3.0,85,0.00,,---,0.00,VWS V14.01,2013-11-21 05:56:00,
2013-11-21 00:57:00,33.0,29.0,30.52,NNW,345,0.0,3.0,85,0.00,,---,0.00,VWS V14.01,2013-11-21 05:57:00,
2013-11-21 01:00:00,33.1,29.1,30.52,NNW,345,0.0,3.0,85,0.00,,---,0.00,VWS V14.01,2013-11-21 06:00:00,
2013-11-21 01:02:00,33.2,29.2,30.52,North,360,0.0,4.0,85,0.00,,---,0.00,VWS V14.01,2013-11-21 06:02:00,
2013-11-21 01:07:00,33.3,29.3,30.52,North,360,0.0,4.0,85,0.00,,---,0.00,VWS V14.01,2013-11-21 06:07:00,
2013-11-21 01:12:00,33.5,29.5,30.52,North,5,2.0,4.0,85,0.00,,---,0.00,VWS V14.01,2013-11-21 06:12:00,
2013-11-21 01:17:00,33.6,29.6,30.52,North,360,1.0,4.0,85,0.00,,---,0.00,VWS V14.01,2013-11-21 06:17:00,
2013-11-21 01:22:00,33.8,29.5,30.52,North,360,0.0,4.0,84,0.00,,---,0.00,VWS V14.01,2013-11-21 06:22:00,
2013-11-21 01:27:00,33.8,29.5,30.52,North,5,0.0,4.0,84,0.00,,---,0.00,VWS V14.01,2013-11-21 06:27:00,
2013-11-21 01:30:00,33.8,29.5,30.52,North,5,2.0,4.0,84,0.00,,---,0.00,VWS V14.01,2013-11-21 06:30:00,
2013-11-21 01:32:00,33.8,29.5,30.52,North,5,1.0,2.0,84,0.00,,---,0.00,VWS V14.01,2013-11-21 06:32:00,
2013-11-21 01:37:00,33.8,29.5,30.52,North,9,0.0,3.0,84,0.00,,---,0.00,VWS V14.01,2013-11-21 06:37:00,
2013-11-21 01:42:00,33.7,29.4,30.52,North,360,3.0,3.0,84,0.00,,---,0.00,VWS V14.01,2013-11-21 06:42:00,
2013-11-21 01:47:00,33.6,29.3,30.52,North,351,1.0,3.0,84,0.00,,---,0.00,VWS V14.01,2013-11-21 06:47:00,
2013-11-21 01:52:00,33.5,29.2,30.52,NNW,347,1.0,3.0,84,0.00,,---,0.00,VWS V14.01,2013-11-21 06:52:00,
2013-11-21 01:57:00,33.4,29.1,30.52,NNW,346,0.0,3.0,84,0.00,,---,0.00,VWS V14.01,2013-11-21 06:57:00,
2013-11-21 02:00:00,33.3,29.0,30.52,North,360,0.0,3.0,84,0.00,,---,0.00,VWS V14.01,2013-11-21 07:00:00,
2013-11-21 02:02:00,33.3,29.0,30.52,North,360,2.0,2.0,84,0.00,,---,0.00,VWS V14.01,2013-11-21 07:02:00,
2013-11-21 02:07:00,33.2,29.2,30.52,NNW,344,1.0,4.0,85,0.00,,---,0.00,VWS V14.01,2013-11-21 07:07:00,
2013-11-21 02:12:00,33.2,29.2,30.53,North,5,1.0,4.0,85,0.00,,---,0.00,VWS V14.01,2013-11-21 07:12:00,
2013-11-21 02:17:00,33.2,29.2,30.53,NNW,348,1.0,4.0,85,0.00,,---,0.00,VWS V14.01,2013-11-21 07:17:00,
2013-11-21 02:21:00,33.2,29.2,30.53,NNE,14,2.0,4.0,85,0.00,,---,0.00,VWS V14.01,2013-11-21 07:21:00,
2013-11-21 02:26:00,33.2,29.2,30.53,North,5,2.0,4.0,85,0.00,,---,0.00,VWS V14.01,2013-11-21 07:26:00,
2013-11-21 02:30:00,33.1,29.1,30.53,NNW,331,2.0,4.0,85,0.00,,---,0.00,VWS V14.01,2013-11-21 07:30:00,
2013-11-21 02:31:00,33.1,29.1,30.53,NNW,331,1.0,3.0,85,0.00,,---,0.00,VWS V14.01,2013-11-21 07:31:00,
2013-11-21 02:36:00,33.1,29.1,30.53,NNW,336,0.0,4.0,85,0.00,,---,0.00,VWS V14.01,2013-11-21 07:36:00,
2013-11-21 02:41:00,33.1,29.1,30.53,NNW,336,2.0,4.0,85,0.00,,---,0.00,VWS V14.01,2013-11-21 07:41:00,
2013-11-21 02:46:00,33.0,29.0,30.53,NNE,12,5.0,5.0,85,0.00,,---,0.00,VWS V14.01,2013-11-21 07:46:00,
2013-11-21 02:51:00,33.0,29.0,30.53,North,5,0.0,5.0,85,0.00,,---,0.00,VWS V14.01,2013-11-21 07:51:00,
2013-11-21 02:56:00,33.0,29.0,30.53,North,360,0.0,5.0,85,0.00,,---,0.00,VWS V14.01,2013-11-21 07:56:00,
2013-11-21 03:00:00,32.9,28.9,30.53,NW,315,0.0,5.0,85,0.00,,---,0.00,VWS V14.01,2013-11-21 08:00:00,
2013-11-21 03:01:00,32.9,28.9,30.53,NW,319,1.0,2.0,85,0.00,,---,0.00,VWS V14.01,2013-11-21 08:01:00,
2013-11-21 03:06:00,32.8,28.8,30.53,NNW,346,1.0,3.0,85,0.00,,---,0.00,VWS V14.01,2013-11-21 08:06:00,
2013-11-21 03:11:00,32.7,28.7,30.53,NNW,346,0.0,3.0,85,0.00,,---,0.00,VWS V14.01,2013-11-21 08:11:00,
2013-11-21 03:16:00,32.6,28.6,30.53,North,355,2.0,4.0,85,0.00,,---,0.00,VWS V14.01,2013-11-21 08:16:00,
2013-11-21 03:21:00,32.7,28.7,30.53,NNW,341,2.0,4.0,85,0.00,,---,0.00,VWS V14.01,2013-11-21 08:21:00,
2013-11-21 03:26:00,32.7,28.7,30.52,North,351,0.0,4.0,85,0.00,,---,0.00,VWS V14.01,2013-11-21 08:26:00,
2013-11-21 03:30:00,32.7,28.4,30.52,North,5,0.0,4.0,84,0.00,,---,0.00,VWS V14.01,2013-11-21 08:30:00,
2013-11-21 03:31:00,32.7,28.4,30.52,North,360,2.0,2.0,84,0.00,,---,0.00,VWS V14.01,2013-11-21 08:31:00,
2013-11-21 03:36:00,32.6,28.3,30.52,North,5,0.0,3.0,84,0.00,,---,0.00,VWS V14.01,2013-11-21 08:36:00,
2013-11-21 03:41:00,32.6,28.3,30.52,NNE,17,2.0,4.0,84,0.00,,---,0.00,VWS V14.01,2013-11-21 08:41:00,
2013-11-21 03:46:00,32.5,28.2,30.52,North,355,3.0,4.0,84,0.00,,---,0.00,VWS V14.01,2013-11-21 08:46:00,
2013-11-21 03:51:00,32.5,28.2,30.52,North,355,3.0,5.0,84,0.00,,---,0.00,VWS V14.01,2013-11-21 08:51:00,
2013-11-21 03:56:00,32.5,28.2,30.52,North,11,2.0,5.0,84,0.00,,---,0.00,VWS V14.01,2013-11-21 08:56:00,
2013-11-21 04:00:00,32.5,28.2,30.52,North,355,0.0,5.0,84,0.00,,---,0.00,VWS V14.01,2013-11-21 09:00:00,
2013-11-21 04:01:00,32.5,28.2,30.52,North,360,2.0,2.0,84,0.00,,---,0.00,VWS V14.01,2013-11-21 09:01:00,
2013-11-21 04:06:00,32.4,28.1,30.51,North,5,2.0,4.0,84,0.00,,---,0.00,VWS V14.01,2013-11-21 09:06:00,
2013-11-21 04:11:00,32.4,28.1,30.51,North,5,1.0,5.0,84,0.00,,---,0.00,VWS V14.01,2013-11-21 09:11:00,
2013-11-21 04:16:00,32.3,28.0,30.51,NNW,331,0.0,5.0,84,0.00,,---,0.00,VWS V14.01,2013-11-21 09:16:00,
2013-11-21 04:21:00,32.2,27.9,30.51,NNE,12,0.0,5.0,84,0.00,,---,0.00,VWS V14.01,2013-11-21 09:21:00,
2013-11-21 04:26:00,32.2,27.9,30.51,North,9,0.0,5.0,84,0.00,,---,0.00,VWS V14.01,2013-11-21 09:26:00,
2013-11-21 04:30:00,32.2,28.2,30.51,NNE,13,0.0,5.0,85,0.00,,---,0.00,VWS V14.01,2013-11-21 09:30:00,
2013-11-21 04:31:00,32.2,28.2,30.51,NNE,13,0.0,0.0,85,0.00,,---,0.00,VWS V14.01,2013-11-21 09:31:00,
2013-11-21 04:36:00,32.3,28.3,30.51,NNW,342,2.0,2.0,85,0.00,,---,0.00,VWS V14.01,2013-11-21 09:36:00,
2013-11-21 04:41:00,32.2,28.2,30.51,NNW,342,0.0,4.0,85,0.00,,---,0.00,VWS V14.01,2013-11-21 09:41:00,
2013-11-21 04:46:00,32.1,28.1,30.51,North,5,1.0,4.0,85,0.00,,---,0.00,VWS V14.01,2013-11-21 09:46:00,
2013-11-21 04:51:00,31.9,27.6,30.51,NNW,346,0.0,4.0,84,0.00,,---,0.00,VWS V14.01,2013-11-21 09:51:00,
2013-11-21 04:56:00,31.9,27.9,30.51,NNW,331,0.0,4.0,85,0.00,,---,0.00,VWS V14.01,2013-11-21 09:56:00,
2013-11-21 05:00:00,31.8,27.8,30.51,NNW,338,0.0,4.0,85,0.00,,---,0.00,VWS V14.01,2013-11-21 10:00:00,
2013-11-21 05:01:00,31.8,27.8,30.51,NW,306,0.0,4.0,85,0.00,,---,0.00,VWS V14.01,2013-11-21 10:01:00,
2013-11-21 05:06:00,31.7,27.7,30.51,North,355,4.0,5.0,85,0.00,,---,0.00,VWS V14.01,2013-11-21 10:06:00,
2013-11-21 05:11:00,31.7,27.7,30.51,NNE,17,0.0,5.0,85,0.00,,---,0.00,VWS V14.01,2013-11-21 10:11:00,
2013-11-21 05:16:00,31.7,27.7,30.51,North,5,2.0,5.0,85,0.00,,---,0.00,VWS V14.01,2013-11-21 10:16:00,
2013-11-21 05:21:00,31.7,27.7,30.51,North,360,0.0,5.0,85,0.00,,---,0.00,VWS V14.01,2013-11-21 10:21:00,
2013-11-21 05:26:00,31.6,27.6,30.51,North,360,0.0,5.0,85,0.00,,---,0.00,VWS V14.01,2013-11-21 10:26:00,
2013-11-21 05:30:00,31.6,27.6,30.51,North,5,2.0,5.0,85,0.00,,---,0.00,VWS V14.01,2013-11-21 10:30:00,
2013-11-21 05:31:00,31.6,27.6,30.51,North,5,0.0,2.0,85,0.00,,---,0.00,VWS V14.01,2013-11-21 10:31:00,
2013-11-21 05:36:00,31.6,27.6,30.51,NNE,12,2.0,5.0,85,0.00,,---,0.00,VWS V14.01,2013-11-21 10:36:00,
2013-11-21 05:41:00,31.7,27.7,30.51,NNW,332,0.0,5.0,85,0.00,,---,0.00,VWS V14.01,2013-11-21 10:41:00,
2013-11-21 05:46:00,31.7,28.0,30.51,North,5,1.0,5.0,86,0.00,,---,0.00,VWS V14.01,2013-11-21 10:46:00,
2013-11-21 05:51:00,31.7,28.0,30.51,NNE,33,2.0,5.0,86,0.00,,---,0.00,VWS V14.01,2013-11-21 10:51:00,
2013-11-21 05:56:00,31.7,28.0,30.51,North,5,2.0,5.0,86,0.00,,---,0.00,VWS V14.01,2013-11-21 10:56:00,
2013-11-21 06:00:00,31.8,28.1,30.51,NNW,346,1.0,7.0,86,0.00,,---,0.00,VWS V14.01,2013-11-21 11:00:00,
2013-11-21 06:01:00,31.8,28.1,30.51,NNE,14,0.0,3.0,86,0.00,,---,0.00,VWS V14.01,2013-11-21 11:01:00,
2013-11-21 06:06:00,31.9,28.2,30.51,North,355,2.0,5.0,86,0.00,,---,0.00,VWS V14.01,2013-11-21 11:06:00,
2013-11-21 06:11:00,31.8,28.1,30.51,North,11,0.0,5.0,86,0.00,,---,0.00,VWS V14.01,2013-11-21 11:11:00,
2013-11-21 06:16:00,31.7,28.0,30.51,North,5,0.0,5.0,86,0.00,,---,0.00,VWS V14.01,2013-11-21 11:16:00,
2013-11-21 06:21:00,31.7,28.0,30.51,NNW,333,4.0,5.0,86,0.00,,---,0.00,VWS V14.01,2013-11-21 11:21:00,
2013-11-21 06:26:00,31.6,27.9,30.52,North,5,1.0,5.0,86,0.00,,---,0.00,VWS V14.01,2013-11-21 11:26:00,
2013-11-21 06:30:00,31.5,27.8,30.52,North,355,2.0,5.0,86,0.00,,---,0.00,VWS V14.01,2013-11-21 11:30:00,
2013-11-21 06:31:00,31.5,27.8,30.52,North,355,0.0,3.0,86,0.00,,---,0.00,VWS V14.01,2013-11-21 11:31:00,
2013-11-21 06:36:00,31.5,28.1,30.52,North,5,2.0,3.0,87,0.00,,---,0.00,VWS V14.01,2013-11-21 11:36:00,
2013-11-21 06:41:00,31.4,28.0,30.52,North,5,1.0,4.0,87,0.00,,---,0.00,VWS V14.01,2013-11-21 11:41:00,
2013-11-21 06:46:00,31.5,28.1,30.52,NNW,340,3.0,4.0,87,0.00,,---,0.00,VWS V14.01,2013-11-21 11:46:00,
2013-11-21 06:51:00,31.4,28.0,30.52,North,5,0.0,4.0,87,0.00,,---,0.00,VWS V14.01,2013-11-21 11:51:00,
2013-11-21 06:56:00,31.4,28.0,30.52,NNW,348,2.0,4.0,87,0.00,,---,0.00,VWS V14.01,2013-11-21 11:56:00,
2013-11-21 07:00:00,31.4,28.0,30.52,North,349,0.0,4.0,87,0.00,,---,0.00,VWS V14.01,2013-11-21 12:00:00,
2013-11-21 07:01:00,31.4,28.0,30.52,NNW,347,0.0,2.0,87,0.00,,---,0.00,VWS V14.01,2013-11-21 12:01:00,
2013-11-21 07:06:00,31.3,27.9,30.52,NNE,15,0.0,3.0,87,0.00,,---,0.00,VWS V14.01,2013-11-21 12:06:00,
2013-11-21 07:11:00,31.3,27.9,30.52,NNE,15,2.0,3.0,87,0.00,,---,0.00,VWS V14.01,2013-11-21 12:11:00,
2013-11-21 07:16:00,31.4,28.3,30.52,NNE,15,2.0,3.0,88,0.00,,---,0.00,VWS V14.01,2013-11-21 12:16:00,
2013-11-21 07:21:00,31.4,28.3,30.52,NNW,343,0.0,4.0,88,0.00,,---,0.00,VWS V14.01,2013-11-21 12:21:00,
2013-11-21 07:26:00,31.5,28.4,30.52,NNW,335,0.0,4.0,88,0.00,,---,0.00,VWS V14.01,2013-11-21 12:26:00,
2013-11-21 07:30:00,31.6,28.5,30.52,North,360,0.0,4.0,88,0.00,,---,0.00,VWS V14.01,2013-11-21 12:30:00,
2013-11-21 07:31:00,31.7,28.6,30.52,North,360,0.0,0.0,88,0.00,,---,0.00,VWS V14.01,2013-11-21 12:31:00,
2013-11-21 07:36:00,31.9,29.0,30.52,North,360,0.0,2.0,89,0.00,,---,0.00,VWS V14.01,2013-11-21 12:36:00,
2013-11-21 07:41:00,32.1,29.2,30.52,NNE,27,1.0,4.0,89,0.00,,---,0.00,VWS V14.01,2013-11-21 12:41:00,
2013-11-21 07:46:00,32.4,29.2,30.52,North,355,0.0,4.0,88,0.00,,---,0.00,VWS V14.01,2013-11-21 12:46:00,
2013-11-21 07:51:00,32.8,29.9,30.52,North,10,2.0,4.0,89,0.00,,---,0.00,VWS V14.01,2013-11-21 12:51:00,
2013-11-21 07:56:00,33.3,30.4,30.52,NNE,22,0.0,4.0,89,0.00,,---,0.00,VWS V14.01,2013-11-21 12:56:00,
2013-11-21 08:00:00,33.7,30.5,30.52,North,5,2.0,4.0,88,0.00,,---,0.00,VWS V14.01,2013-11-21 13:00:00,
2013-11-21 08:01:00,33.9,30.7,30.52,North,11,4.0,4.0,88,0.00,,---,0.00,VWS V14.01,2013-11-21 13:01:00,
2013-11-21 08:06:00,34.5,31.3,30.52,North,5,2.0,4.0,88,0.00,,---,0.00,VWS V14.01,2013-11-21 13:06:00,
2013-11-21 08:11:00,35.1,31.6,30.52,North,5,0.0,4.0,87,0.00,,---,0.00,VWS V14.01,2013-11-21 13:11:00,
2013-11-21 08:16:00,35.6,32.1,30.52,North,5,2.0,4.0,87,0.00,,---,0.00,VWS V14.01,2013-11-21 13:16:00,
2013-11-21 08:21:00,36.0,32.2,30.52,North,5,0.0,4.0,86,0.00,,---,0.00,VWS V14.01,2013-11-21 13:21:00,
2013-11-21 08:26:00,36.4,32.6,30.52,North,5,1.0,4.0,86,0.00,,---,0.00,VWS V14.01,2013-11-21 13:26:00,
2013-11-21 08:30:00,36.9,33.1,30.52,North,360,0.0,4.0,86,0.00,,---,0.00,VWS V14.01,2013-11-21 13:30:00,
2013-11-21 08:31:00,37.0,32.9,30.52,North,5,1.0,3.0,85,0.00,,---,0.00,VWS V14.01,2013-11-21 13:31:00,
2013-11-21 08:36:00,37.6,33.5,30.52,North,360,0.0,3.0,85,0.00,,---,0.00,VWS V14.01,2013-11-21 13:36:00,
2013-11-21 08:40:00,38.2,33.8,30.53,North,360,1.0,3.0,84,0.00,,---,0.00,VWS V14.01,2013-11-21 13:40:00,
2013-11-21 08:45:00,38.6,34.2,30.53,NNW,333,2.0,3.0,84,0.00,,---,0.00,VWS V14.01,2013-11-21 13:45:00,
2013-11-21 08:50:00,39.1,34.4,30.53,NNW,329,0.0,3.0,83,0.00,,---,0.00,VWS V14.01,2013-11-21 13:50:00,
2013-11-21 08:55:00,39.9,35.2,30.53,North,5,1.0,4.0,83,0.00,,---,0.00,VWS V14.01,2013-11-21 13:55:00,
2013-11-21 09:00:00,40.7,35.3,30.53,North,5,0.0,3.0,81,0.00,,---,0.00,VWS V14.01,2013-11-21 14:00:00,
2013-11-21 09:05:00,41.5,36.1,30.52,NNE,14,1.0,3.0,81,0.00,,---,0.00,VWS V14.01,2013-11-21 14:05:00,
2013-11-21 09:10:00,42.3,36.6,30.52,North,5,2.0,4.0,80,0.00,,---,0.00,VWS V14.01,2013-11-21 14:10:00,
2013-11-21 09:15:00,43.0,36.9,30.51,NNE,28,0.0,4.0,79,0.00,,---,0.00,VWS V14.01,2013-11-21 14:15:00,
2013-11-21 09:20:00,43.7,37.6,30.51,NE,42,2.0,4.0,79,0.00,,---,0.00,VWS V14.01,2013-11-21 14:20:00,
2013-11-21 09:25:00,44.7,38.3,30.51,ENE,63,1.0,5.0,78,0.00,,---,0.00,VWS V14.01,2013-11-21 14:25:00,
2013-11-21 09:30:00,45.7,39.2,30.51,NE,45,2.0,2.0,78,0.00,,---,0.00,VWS V14.01,2013-11-21 14:30:00,
2013-11-21 09:35:00,46.7,40.2,30.51,NE,37,1.0,3.0,78,0.00,,---,0.00,VWS V14.01,2013-11-21 14:35:00,
2013-11-21 09:40:00,47.8,41.0,30.51,NE,45,3.0,4.0,77,0.00,,---,0.00,VWS V14.01,2013-11-21 14:40:00,
2013-11-21 09:45:00,48.8,41.2,30.52,NE,46,1.0,4.0,75,0.00,,---,0.00,VWS V14.01,2013-11-21 14:45:00,
2013-11-21 09:50:00,49.9,42.0,30.52,East,81,1.0,4.0,74,0.00,,---,0.00,VWS V14.01,2013-11-21 14:50:00,
2013-11-21 09:55:00,50.7,42.7,30.52,East,84,1.0,5.0,74,0.00,,---,0.00,VWS V14.01,2013-11-21 14:55:00,
2013-11-21 10:00:00,51.6,43.2,30.52,East,86,5.0,5.0,73,0.00,,---,0.00,VWS V14.01,2013-11-21 15:00:00,
2013-11-21 10:05:00,52.3,43.2,30.52,East,84,5.0,6.0,71,0.00,,---,0.00,VWS V14.01,2013-11-21 15:05:00,
2013-11-21 10:10:00,52.9,43.8,30.52,East,97,0.0,6.0,71,0.00,,---,0.00,VWS V14.01,2013-11-21 15:10:00,
2013-11-21 10:15:00,53.4,43.1,30.52,ESE,113,1.0,7.0,68,0.00,,---,0.00,VWS V14.01,2013-11-21 15:15:00,
2013-11-21 10:20:00,53.9,43.2,30.52,ENE,72,1.0,8.0,67,0.00,,---,0.00,VWS V14.01,2013-11-21 15:20:00,
2013-11-21 10:25:00,54.2,43.5,30.51,NE,55,3.0,14.0,67,0.00,,---,0.00,VWS V14.01,2013-11-21 15:25:00,
2013-11-21 10:30:00,54.4,43.7,30.52,SE,137,6.0,6.0,67,0.00,,---,0.00,VWS V14.01,2013-11-21 15:30:00,
2013-11-21 10:35:00,54.5,43.4,30.52,East,101,2.0,8.0,66,0.00,,---,0.00,VWS V14.01,2013-11-21 15:35:00,
2013-11-21 10:40:00,54.6,43.9,30.52,SSE,152,1.0,9.0,67,0.00,,---,0.00,VWS V14.01,2013-11-21 15:40:00,
2013-11-21 10:45:00,54.6,44.3,30.52,SE,142,4.0,9.0,68,0.00,,---,0.00,VWS V14.01,2013-11-21 15:45:00,
2013-11-21 10:50:00,54.6,43.9,30.51,ESE,116,2.0,9.0,67,0.00,,---,0.00,VWS V14.01,2013-11-21 15:50:00,
2013-11-21 10:55:00,54.8,44.5,30.51,East,81,2.0,9.0,68,0.00,,---,0.00,VWS V14.01,2013-11-21 15:55:00,
2013-11-21 11:00:00,54.8,44.1,30.51,SSE,167,1.0,4.0,67,0.00,,---,0.00,VWS V14.01,2013-11-21 16:00:00,
2013-11-21 11:05:00,54.7,43.6,30.51,East,89,0.0,7.0,66,0.00,,---,0.00,VWS V14.01,2013-11-21 16:05:00,
2013-11-21 11:10:00,54.8,44.1,30.50,East,86,5.0,7.0,67,0.00,,---,0.00,VWS V14.01,2013-11-21 16:10:00,
2013-11-21 11:15:00,55.0,43.9,30.50,SE,127,5.0,8.0,66,0.00,,---,0.00,VWS V14.01,2013-11-21 16:15:00,
2013-11-21 11:20:00,54.9,44.2,30.50,SSE,148,6.0,10.0,67,0.00,,---,0.00,VWS V14.01,2013-11-21 16:20:00,
2013-11-21 11:25:00,54.7,44.0,30.50,East,98,5.0,10.0,67,0.00,,---,0.00,VWS V14.01,2013-11-21 16:25:00,
2013-11-21 11:30:00,54.8,44.1,30.49,ENE,57,9.0,10.0,67,0.00,,---,0.00,VWS V14.01,2013-11-21 16:30:00,
2013-11-21 11:35:00,54.8,44.5,30.49,East,79,3.0,10.0,68,0.00,,---,0.00,VWS V14.01,2013-11-21 16:35:00,
2013-11-21 11:40:00,54.8,44.1,30.49,ESE,121,1.0,10.0,67,0.00,,---,0.00,VWS V14.01,2013-11-21 16:40:00,
2013-11-21 11:45:00,54.8,44.1,30.48,East,83,1.0,10.0,67,0.00,,---,0.00,VWS V14.01,2013-11-21 16:45:00,
2013-11-21 11:50:00,54.8,44.1,30.48,East,79,0.0,10.0,67,0.00,,---,0.00,VWS V14.01,2013-11-21 16:50:00,
2013-11-21 11:55:00,54.8,44.1,30.48,East,100,3.0,10.0,67,0.00,,---,0.00,VWS V14.01,2013-11-21 16:55:00,
2013-11-21 12:00:00,54.7,43.2,30.48,East,98,2.0,4.0,65,0.00,,---,0.00,VWS V14.01,2013-11-21 17:00:00,
2013-11-21 12:05:00,54.8,43.3,30.48,SE,136,5.0,9.0,65,0.00,,---,0.00,VWS V14.01,2013-11-21 17:05:00,
2013-11-21 12:10:00,54.9,43.4,30.48,East,88,5.0,9.0,65,0.00,,---,0.00,VWS V14.01,2013-11-21 17:10:00,
2013-11-21 12:15:00,54.9,43.4,30.47,SSE,154,3.0,9.0,65,0.00,,---,0.00,VWS V14.01,2013-11-21 17:15:00,
2013-11-21 12:20:00,54.9,43.4,30.47,SE,134,4.0,9.0,65,0.00,,---,0.00,VWS V14.01,2013-11-21 17:20:00,
2013-11-21 12:25:00,55.0,43.5,30.47,SE,140,3.0,9.0,65,0.00,,---,0.00,VWS V14.01,2013-11-21 17:25:00,
2013-11-21 12:30:00,55.0,43.5,30.47,ESE,109,2.0,3.0,65,0.00,,---,0.00,VWS V14.01,2013-11-21 17:30:00,
2013-11-21 12:35:00,55.0,43.5,30.47,SE,138,0.0,8.0,65,0.00,,---,0.00,VWS V14.01,2013-11-21 17:35:00,
2013-11-21 12:40:00,54.9,43.4,30.46,SE,132,4.0,9.0,65,0.00,,---,0.00,VWS V14.01,2013-11-21 17:40:00,
2013-11-21 12:45:00,54.8,43.7,30.46,ESE,109,0.0,9.0,66,0.00,,---,0.00,VWS V14.01,2013-11-21 17:45:00,
2013-11-21 12:50:00,54.7,43.6,30.46,ESE,103,2.0,10.0,66,0.00,,---,0.00,VWS V14.01,2013-11-21 17:50:00,
2013-11-21 12:55:00,54.6,43.5,30.46,SE,125,5.0,10.0,66,0.00,,---,0.00,VWS V14.01,2013-11-21 17:55:00,
2013-11-21 13:00:00,54.5,43.4,30.46,ENE,78,3.0,3.0,66,0.00,,---,0.00,VWS V14.01,2013-11-21 18:00:00,
2013-11-21 13:05:00,54.4,43.3,30.46,SSE,159,0.0,7.0,66,0.00,,---,0.00,VWS V14.01,2013-11-21 18:05:00,
2013-11-21 13:10:00,54.3,43.2,30.46,SE,134,1.0,7.0,66,0.00,,---,0.00,VWS V14.01,2013-11-21 18:10:00,
2013-11-21 13:15:00,54.2,43.5,30.45,SE,132,7.0,7.0,67,0.00,,---,0.00,VWS V14.01,2013-11-21 18:15:00,
2013-11-21 13:20:00,54.1,43.4,30.45,SE,139,3.0,7.0,67,0.00,,---,0.00,VWS V14.01,2013-11-21 18:20:00,
2013-11-21 13:25:00,54.0,43.3,30.45,East,98,2.0,7.0,67,0.00,,---,0.00,VWS V14.01,2013-11-21 18:25:00,
2013-11-21 13:30:00,53.9,43.2,30.44,SE,136,1.0,7.0,67,0.00,,---,0.00,VWS V14.01,2013-11-21 18:30:00,
2013-11-21 13:35:00,53.9,43.6,30.44,SE,132,0.0,6.0,68,0.00,,---,0.00,VWS V14.01,2013-11-21 18:35:00,
2013-11-21 13:40:00,53.9,44.0,30.44,ESE,119,1.0,6.0,69,0.00,,---,0.00,VWS V14.01,2013-11-21 18:40:00,
2013-11-21 13:45:00,53.9,43.6,30.44,SE,134,4.0,6.0,68,0.00,,---,0.00,VWS V14.01,2013-11-21 18:45:00,
2013-11-21 13:50:00,53.8,43.5,30.43,ESE,123,0.0,6.0,68,0.00,,---,0.00,VWS V14.01,2013-11-21 18:50:00,
2013-11-21 13:55:00,53.8,43.9,30.43,SSE,152,1.0,7.0,69,0.00,,---,0.00,VWS V14.01,2013-11-21 18:55:00,
2013-11-21 14:00:00,53.9,44.0,30.43,ESE,105,2.0,7.0,69,0.00,,---,0.00,VWS V14.01,2013-11-21 19:00:00,
2013-11-21 14:05:00,53.8,43.9,30.43,SE,126,2.0,7.0,69,0.00,,---,0.00,VWS V14.01,2013-11-21 19:05:00,
2013-11-21 14:10:00,53.7,44.2,30.43,SE,138,3.0,7.0,70,0.00,,---,0.00,VWS V14.01,2013-11-21 19:10:00,
2013-11-21 14:15:00,53.7,44.2,30.43,SE,134,0.0,7.0,70,0.00,,---,0.00,VWS V14.01,2013-11-21 19:15:00,
2013-11-21 14:20:00,53.6,44.1,30.43,SE,140,2.0,7.0,70,0.00,,---,0.00,VWS V14.01,2013-11-21 19:20:00,
2013-11-21 14:25:00,53.6,44.4,30.43,East,94,5.0,7.0,71,0.00,,---,0.00,VWS V14.01,2013-11-21 19:25:00,
2013-11-21 14:30:00,53.6,44.1,30.43,East,95,3.0,7.0,70,0.00,,---,0.00,VWS V14.01,2013-11-21 19:30:00,
2013-11-21 14:35:00,53.6,44.4,30.43,East,91,2.0,7.0,71,0.00,,---,0.00,VWS V14.01,2013-11-21 19:35:00,
2013-11-21 14:40:00,53.5,44.3,30.43,East,90,0.0,7.0,71,0.00,,---,0.00,VWS V14.01,2013-11-21 19:40:00,
2013-11-21 14:44:00,53.5,44.7,30.43,SSE,148,1.0,7.0,72,0.00,,---,0.00,VWS V14.01,2013-11-21 19:44:00,
2013-11-21 14:49:00,53.5,45.1,30.43,SW,219,0.0,7.0,73,0.00,,---,0.00,VWS V14.01,2013-11-21 19:49:00,
2013-11-21 14:54:00,53.5,45.1,30.43,ESE,105,0.0,7.0,73,0.00,,---,0.00,VWS V14.01,2013-11-21 19:54:00,
2013-11-21 14:59:00,53.5,45.1,30.44,East,97,1.0,7.0,73,0.00,,---,0.00,VWS V14.01,2013-11-21 19:59:00,
2013-11-21 15:00:00,53.5,45.1,30.44,East,97,0.0,7.0,73,0.00,,---,0.00,VWS V14.01,2013-11-21 20:00:00,
2013-11-21 15:04:00,53.6,45.2,30.44,East,95,3.0,6.0,73,0.00,,---,0.00,VWS V14.01,2013-11-21 20:04:00,
2013-11-21 15:09:00,53.6,45.2,30.44,ESE,104,4.0,6.0,73,0.00,,---,0.00,VWS V14.01,2013-11-21 20:09:00,
2013-11-21 15:14:00,53.6,45.2,30.44,ESE,119,3.0,6.0,73,0.00,,---,0.00,VWS V14.01,2013-11-21 20:14:00,
2013-11-21 15:19:00,53.7,45.3,30.44,ESE,111,0.0,6.0,73,0.00,,---,0.00,VWS V14.01,2013-11-21 20:19:00,
2013-11-21 15:24:00,53.7,45.6,30.44,ESE,111,0.0,6.0,74,0.00,,---,0.00,VWS V14.01,2013-11-21 20:24:00,
2013-11-21 15:29:00,53.7,44.9,30.43,ESE,103,2.0,6.0,72,0.00,,---,0.00,VWS V14.01,2013-11-21 20:29:00,
2013-11-21 15:30:00,53.6,44.8,30.43,ESE,103,0.0,6.0,72,0.00,,---,0.00,VWS V14.01,2013-11-21 20:30:00,
2013-11-21 15:34:00,53.5,45.1,30.43,ESE,103,2.0,3.0,73,0.00,,---,0.00,VWS V14.01,2013-11-21 20:34:00,
2013-11-21 15:39:00,53.2,44.8,30.43,ESE,105,0.0,3.0,73,0.00,,---,0.00,VWS V14.01,2013-11-21 20:39:00,
2013-11-21 15:44:00,52.9,44.8,30.43,ESE,104,1.0,3.0,74,0.00,,---,0.00,VWS V14.01,2013-11-21 20:44:00,
2013-11-21 15:49:00,52.6,44.9,30.43,ESE,108,2.0,3.0,75,0.00,,---,0.00,VWS V14.01,2013-11-21 20:49:00,
2013-11-21 15:54:00,52.4,45.1,30.43,ESE,108,0.0,3.0,76,0.00,,---,0.00,VWS V14.01,2013-11-21 20:54:00,
2013-11-21 15:59:00,52.2,44.9,30.42,ESE,108,0.0,3.0,76,0.00,,---,0.00,VWS V14.01,2013-11-21 20:59:00,
2013-11-21 16:00:00,52.1,44.8,30.42,ESE,108,0.0,3.0,76,0.00,,---,0.00,VWS V14.01,2013-11-21 21:00:00,
2013-11-21 16:04:00,51.9,44.9,30.42,ESE,108,0.0,0.0,77,0.00,,---,0.00,VWS V14.01,2013-11-21 21:04:00,
2013-11-21 16:09:00,51.6,45.0,30.42,ESE,108,0.0,1.0,78,0.00,,---,0.00,VWS V14.01,2013-11-21 21:09:00,
2013-11-21 16:14:00,51.4,44.8,30.42,ESE,108,0.0,1.0,78,0.00,,---,0.00,VWS V14.01,2013-11-21 21:14:00,
2013-11-21 16:19:00,51.2,44.9,30.42,ESE,108,0.0,1.0,79,0.00,,---,0.00,VWS V14.01,2013-11-21 21:19:00,
2013-11-21 16:24:00,50.9,45.0,30.42,ESE,108,0.0,1.0,80,0.00,,---,0.00,VWS V14.01,2013-11-21 21:24:00,
2013-11-21 16:29:00,50.6,44.7,30.42,ESE,108,0.0,1.0,80,0.00,,---,0.00,VWS V14.01,2013-11-21 21:29:00,
2013-11-21 16:30:00,50.6,44.7,30.42,ESE,108,0.0,1.0,80,0.00,,---,0.00,VWS V14.01,2013-11-21 21:30:00,
2013-11-21 16:34:00,50.3,44.7,30.42,ESE,108,0.0,0.0,81,0.00,,---,0.00,VWS V14.01,2013-11-21 21:34:00,
2013-11-21 16:39:00,50.0,44.4,30.42,ESE,108,0.0,0.0,81,0.00,,---,0.00,VWS V14.01,2013-11-21 21:39:00,
2013-11-21 16:44:00,49.7,44.4,30.42,ESE,108,0.0,0.0,82,0.00,,---,0.00,VWS V14.01,2013-11-21 21:44:00,
2013-11-21 16:49:00,49.5,44.2,30.42,ESE,108,0.0,0.0,82,0.00,,---,0.00,VWS V14.01,2013-11-21 21:49:00,
2013-11-21 16:54:00,49.2,44.0,30.42,ESE,108,0.0,0.0,82,0.00,,---,0.00,VWS V14.01,2013-11-21 21:54:00,
2013-11-21 16:59:00,49.0,44.1,30.42,ESE,108,0.0,0.0,83,0.00,,---,0.00,VWS V14.01,2013-11-21 21:59:00,
2013-11-21 17:00:00,48.9,44.0,30.42,ESE,108,0.0,0.0,83,0.00,,---,0.00,VWS V14.01,2013-11-21 22:00:00,
2013-11-21 17:04:00,48.7,43.8,30.42,ESE,108,0.0,0.0,83,0.00,,---,0.00,VWS V14.01,2013-11-21 22:04:00,
2013-11-21 17:09:00,48.3,43.4,30.42,ESE,108,0.0,0.0,83,0.00,,---,0.00,VWS V14.01,2013-11-21 22:09:00,
2013-11-21 17:14:00,48.0,43.4,30.42,ESE,108,0.0,0.0,84,0.00,,---,0.00,VWS V14.01,2013-11-21 22:14:00,
2013-11-21 17:19:00,47.7,43.1,30.42,ESE,108,0.0,0.0,84,0.00,,---,0.00,VWS V14.01,2013-11-21 22:19:00,
2013-11-21 17:24:00,47.5,43.2,30.42,ESE,108,0.0,0.0,85,0.00,,---,0.00,VWS V14.01,2013-11-21 22:24:00,
2013-11-21 17:29:00,47.3,43.3,30.42,ESE,108,0.0,0.0,86,0.00,,---,0.00,VWS V14.01,2013-11-21 22:29:00,
2013-11-21 17:30:00,47.3,43.3,30.42,ESE,108,0.0,0.0,86,0.00,,---,0.00,VWS V14.01,2013-11-21 22:30:00,
2013-11-21 17:34:00,47.1,43.1,30.42,ESE,108,0.0,0.0,86,0.00,,---,0.00,VWS V14.01,2013-11-21 22:34:00,
2013-11-21 17:39:00,46.9,42.9,30.42,ESE,108,0.0,0.0,86,0.00,,---,0.00,VWS V14.01,2013-11-21 22:39:00,
2013-11-21 17:44:00,46.8,43.1,30.42,ESE,108,0.0,0.0,87,0.00,,---,0.00,VWS V14.01,2013-11-21 22:44:00,
2013-11-21 17:49:00,46.6,43.2,30.42,ESE,108,0.0,0.0,88,0.00,,---,0.00,VWS V14.01,2013-11-21 22:49:00,
2013-11-21 17:54:00,46.5,43.1,30.42,ESE,108,0.0,0.0,88,0.00,,---,0.00,VWS V14.01,2013-11-21 22:54:00,
2013-11-21 17:59:00,46.4,43.0,30.41,ESE,108,0.0,2.0,88,0.00,,---,0.00,VWS V14.01,2013-11-21 22:59:00,
2013-11-21 18:00:00,46.4,43.0,30.41,ESE,108,0.0,2.0,88,0.00,,---,0.00,VWS V14.01,2013-11-21 23:00:00,
2013-11-21 18:04:00,46.2,42.8,30.42,ESE,108,0.0,0.0,88,0.00,,---,0.00,VWS V14.01,2013-11-21 23:04:00,
2013-11-21 18:09:00,46.0,42.7,30.42,ESE,108,0.0,0.0,88,0.00,,---,0.00,VWS V14.01,2013-11-21 23:09:00,
2013-11-21 18:14:00,45.8,42.5,30.42,ESE,108,0.0,0.0,88,0.00,,---,0.00,VWS V14.01,2013-11-21 23:14:00,
2013-11-21 18:19:00,45.6,42.3,30.41,ESE,108,0.0,0.0,88,0.00,,---,0.00,VWS V14.01,2013-11-21 23:19:00,
2013-11-21 18:24:00,45.4,42.3,30.42,ESE,108,0.0,0.0,89,0.00,,---,0.00,VWS V14.01,2013-11-21 23:24:00,
2013-11-21 18:29:00,45.2,42.2,30.42,ESE,108,0.0,0.0,89,0.00,,---,0.00,VWS V14.01,2013-11-21 23:29:00,
2013-11-21 18:30:00,45.1,42.1,30.42,ESE,108,0.0,0.0,89,0.00,,---,0.00,VWS V14.01,2013-11-21 23:30:00,
2013-11-21 18:34:00,45.0,42.2,30.42,ESE,108,0.0,0.0,90,0.00,,---,0.00,VWS V14.01,2013-11-21 23:34:00,
2013-11-21 18:39:00,44.9,42.2,30.41,ESE,108,0.0,0.0,90,0.00,,---,0.00,VWS V14.01,2013-11-21 23:39:00,
2013-11-21 18:44:00,44.8,42.0,30.41,ESE,108,0.0,0.0,90,0.00,,---,0.00,VWS V14.01,2013-11-21 23:44:00,
2013-11-21 18:49:00,44.7,42.0,30.41,ESE,108,0.0,0.0,90,0.00,,---,0.00,VWS V14.01,2013-11-21 23:49:00,
2013-11-21 18:54:00,44.7,42.2,30.41,ESE,108,0.0,0.0,91,0.00,,---,0.00,VWS V14.01,2013-11-21 23:54:00,
2013-11-21 18:59:00,44.7,42.2,30.41,ESE,108,0.0,0.0,91,0.00,,---,0.00,VWS V14.01,2013-11-21 23:59:00,
2013-11-21 19:00:00,44.7,42.2,30.41,ESE,108,0.0,0.0,91,0.00,,---,0.00,VWS V14.01,2013-11-22 00:00:00,
2013-11-21 19:04:00,44.7,42.2,30.41,ESE,108,0.0,0.0,91,0.00,,---,0.00,VWS V14.01,2013-11-22 00:04:00,
2013-11-21 19:09:00,44.7,42.2,30.41,ESE,108,0.0,0.0,91,0.00,,---,0.00,VWS V14.01,2013-11-22 00:09:00,
2013-11-21 19:14:00,44.7,42.2,30.41,ESE,108,0.0,0.0,91,0.00,,---,0.00,VWS V14.01,2013-11-22 00:14:00,
2013-11-21 19:19:00,44.7,42.5,30.41,ESE,108,0.0,0.0,92,0.00,,---,0.00,VWS V14.01,2013-11-22 00:19:00,
2013-11-21 19:24:00,44.7,42.5,30.41,ESE,108,0.0,0.0,92,0.00,,---,0.00,VWS V14.01,2013-11-22 00:24:00,
2013-11-21 19:29:00,44.8,42.6,30.41,ESE,108,0.0,0.0,92,0.00,,---,0.00,VWS V14.01,2013-11-22 00:29:00,
2013-11-21 19:30:00,44.8,42.6,30.41,ESE,108,0.0,0.0,92,0.00,,---,0.00,VWS V14.01,2013-11-22 00:30:00,
2013-11-21 19:34:00,44.9,42.7,30.41,ESE,108,0.0,0.0,92,0.00,,---,0.00,VWS V14.01,2013-11-22 00:34:00,
2013-11-21 19:39:00,44.9,42.7,30.41,ESE,108,0.0,0.0,92,0.00,,---,0.00,VWS V14.01,2013-11-22 00:39:00,
2013-11-21 19:44:00,44.9,42.7,30.41,ESE,108,0.0,0.0,92,0.00,,---,0.00,VWS V14.01,2013-11-22 00:44:00,
2013-11-21 19:49:00,45.0,42.8,30.41,ESE,108,0.0,0.0,92,0.00,,---,0.00,VWS V14.01,2013-11-22 00:49:00,
2013-11-21 19:54:00,45.0,42.8,30.41,ESE,108,0.0,0.0,92,0.00,,---,0.00,VWS V14.01,2013-11-22 00:54:00,
2013-11-21 19:59:00,45.0,42.8,30.41,ESE,108,0.0,0.0,92,0.00,,---,0.00,VWS V14.01,2013-11-22 00:59:00,
2013-11-21 20:00:00,45.0,42.8,30.41,ESE,108,0.0,0.0,92,0.00,,---,0.00,VWS V14.01,2013-11-22 01:00:00,
2013-11-21 20:04:00,45.0,42.8,30.40,ESE,108,0.0,0.0,92,0.00,,---,0.00,VWS V14.01,2013-11-22 01:04:00,
2013-11-21 20:09:00,44.9,42.4,30.40,ESE,108,0.0,0.0,91,0.00,,---,0.00,VWS V14.01,2013-11-22 01:09:00,
2013-11-21 20:13:00,44.8,42.3,30.40,ESE,108,0.0,0.0,91,0.00,,---,0.00,VWS V14.01,2013-11-22 01:13:00,
2013-11-21 20:18:00,44.7,42.2,30.40,ESE,108,0.0,0.0,91,0.00,,---,0.00,VWS V14.01,2013-11-22 01:18:00,
2013-11-21 20:23:00,44.7,42.2,30.40,ESE,108,0.0,0.0,91,0.00,,---,0.00,VWS V14.01,2013-11-22 01:23:00,
2013-11-21 20:28:00,44.6,42.4,30.40,ESE,108,0.0,0.0,92,0.00,,---,0.00,VWS V14.01,2013-11-22 01:28:00,
2013-11-21 20:30:00,44.5,42.3,30.40,ESE,108,0.0,0.0,92,0.00,,---,0.00,VWS V14.01,2013-11-22 01:30:00,
2013-11-21 20:33:00,44.5,42.3,30.40,ESE,108,0.0,0.0,92,0.00,,---,0.00,VWS V14.01,2013-11-22 01:33:00,
2013-11-21 20:38:00,44.5,42.3,30.40,ESE,108,0.0,0.0,92,0.00,,---,0.00,VWS V14.01,2013-11-22 01:38:00,
2013-11-21 20:43:00,44.5,42.3,30.39,ESE,108,0.0,0.0,92,0.00,,---,0.00,VWS V14.01,2013-11-22 01:43:00,
2013-11-21 20:48:00,44.4,42.2,30.39,ESE,108,0.0,0.0,92,0.00,,---,0.00,VWS V14.01,2013-11-22 01:48:00,
2013-11-21 20:53:00,44.4,42.2,30.39,ESE,108,0.0,0.0,92,0.00,,---,0.00,VWS V14.01,2013-11-22 01:53:00,
2013-11-21 20:58:00,44.3,42.1,30.39,ESE,108,0.0,0.0,92,0.00,,---,0.00,VWS V14.01,2013-11-22 01:58:00,
2013-11-21 21:00:00,44.4,42.2,30.39,ESE,108,0.0,0.0,92,0.00,,---,0.00,VWS V14.01,2013-11-22 02:00:00,
2013-11-21 21:03:00,44.4,42.2,30.39,ESE,108,0.0,0.0,92,0.00,,---,0.00,VWS V14.01,2013-11-22 02:03:00,
2013-11-21 21:08:00,44.5,42.3,30.38,ESE,108,0.0,0.0,92,0.00,,---,0.00,VWS V14.01,2013-11-22 02:08:00,
2013-11-21 21:09:00,44.5,42.3,30.38,ESE,108,0.0,0.0,92,0.00,,---,0.00,VWS V14.01,2013-11-22 02:09:00,
2013-11-21 21:14:00,44.5,42.3,30.38,ESE,108,0.0,0.0,92,0.00,,---,0.00,VWS V14.01,2013-11-22 02:14:00,
2013-11-21 21:19:00,44.5,42.6,30.38,ESE,108,0.0,0.0,93,0.00,,---,0.00,VWS V14.01,2013-11-22 02:19:00,
2013-11-21 21:24:00,44.5,42.6,30.39,ESE,108,0.0,0.0,93,0.00,,---,0.00,VWS V14.01,2013-11-22 02:24:00,
2013-11-21 21:29:00,44.6,42.7,30.38,ESE,108,0.0,0.0,93,0.00,,---,0.00,VWS V14.01,2013-11-22 02:29:00,
2013-11-21 21:30:00,44.7,42.8,30.38,ESE,108,0.0,0.0,93,0.00,,---,0.00,VWS V14.01,2013-11-22 02:30:00,
2013-11-21 21:34:00,44.6,42.7,30.38,ESE,108,0.0,0.0,93,0.00,,---,0.00,VWS V14.01,2013-11-22 02:34:00,
2013-11-21 21:39:00,44.7,42.8,30.38,ESE,108,0.0,0.0,93,0.00,,---,0.00,VWS V14.01,2013-11-22 02:39:00,
2013-11-21 21:44:00,44.7,42.8,30.39,ESE,108,0.0,0.0,93,0.00,,---,0.00,VWS V14.01,2013-11-22 02:44:00,
2013-11-21 21:49:00,44.7,42.8,30.39,ESE,108,0.0,0.0,93,0.00,,---,0.00,VWS V14.01,2013-11-22 02:49:00,
2013-11-21 21:54:00,44.8,42.9,30.39,ESE,108,0.0,0.0,93,0.00,,---,0.00,VWS V14.01,2013-11-22 02:54:00,
2013-11-21 21:59:00,44.8,42.9,30.38,ESE,108,0.0,0.0,93,0.00,,---,0.00,VWS V14.01,2013-11-22 02:59:00,
2013-11-21 22:00:00,44.8,42.9,30.38,ESE,108,0.0,0.0,93,0.00,,---,0.00,VWS V14.01,2013-11-22 03:00:00,
2013-11-21 22:03:00,44.9,43.0,30.38,ESE,108,0.0,0.0,93,0.00,,---,0.00,VWS V14.01,2013-11-22 03:03:00,
2013-11-21 22:08:00,44.9,43.0,30.38,ESE,108,0.0,0.0,93,0.00,,---,0.00,VWS V14.01,2013-11-22 03:08:00,
2013-11-21 22:13:00,45.0,43.1,30.38,ESE,108,0.0,0.0,93,0.00,,---,0.00,VWS V14.01,2013-11-22 03:13:00,
2013-11-21 22:18:00,45.1,43.2,30.38,ESE,108,0.0,0.0,93,0.00,,---,0.00,VWS V14.01,2013-11-22 03:18:00,
2013-11-21 22:23:00,45.2,43.3,30.38,ESE,108,0.0,0.0,93,0.00,,---,0.00,VWS V14.01,2013-11-22 03:23:00,
2013-11-21 22:28:00,45.3,43.4,30.38,ESE,108,0.0,0.0,93,0.00,,---,0.00,VWS V14.01,2013-11-22 03:28:00,
2013-11-21 22:30:00,45.3,43.4,30.37,ESE,108,0.0,0.0,93,0.00,,---,0.00,VWS V14.01,2013-11-22 03:30:00,
2013-11-21 22:33:00,45.4,43.5,30.37,ESE,108,0.0,0.0,93,0.00,,---,0.00,VWS V14.01,2013-11-22 03:33:00,
2013-11-21 22:38:00,45.4,43.5,30.38,ESE,108,0.0,0.0,93,0.00,,---,0.00,VWS V14.01,2013-11-22 03:38:00,
2013-11-21 22:43:00,45.5,43.6,30.38,ESE,108,0.0,0.0,93,0.00,,---,0.00,VWS V14.01,2013-11-22 03:43:00,
2013-11-21 22:48:00,45.5,43.6,30.38,ESE,108,0.0,0.0,93,0.00,,---,0.00,VWS V14.01,2013-11-22 03:48:00,
2013-11-21 22:53:00,45.6,43.7,30.38,ESE,108,0.0,0.0,93,0.00,,---,0.00,VWS V14.01,2013-11-22 03:53:00,
2013-11-21 22:58:00,45.6,43.7,30.38,ESE,108,0.0,0.0,93,0.00,,---,0.00,VWS V14.01,2013-11-22 03:58:00,
2013-11-21 23:00:00,45.6,43.7,30.38,ESE,108,0.0,0.0,93,0.00,,---,0.00,VWS V14.01,2013-11-22 04:00:00,
2013-11-21 23:03:00,45.6,43.7,30.38,ESE,108,0.0,0.0,93,0.00,,---,0.00,VWS V14.01,2013-11-22 04:03:00,
2013-11-21 23:08:00,45.6,43.7,30.37,ESE,108,0.0,0.0,93,0.00,,---,0.00,VWS V14.01,2013-11-22 04:08:00,
2013-11-21 23:13:00,45.7,43.8,30.37,ESE,108,0.0,0.0,93,0.00,,---,0.00,VWS V14.01,2013-11-22 04:13:00,
2013-11-21 23:18:00,45.8,43.9,30.37,ESE,108,0.0,0.0,93,0.00,,---,0.00,VWS V14.01,2013-11-22 04:18:00,
2013-11-21 23:23:00,45.8,43.9,30.37,ESE,108,0.0,0.0,93,0.00,,---,0.00,VWS V14.01,2013-11-22 04:23:00,
2013-11-21 23:28:00,45.9,44.0,30.37,ESE,108,0.0,0.0,93,0.00,,---,0.00,VWS V14.01,2013-11-22 04:28:00,
2013-11-21 23:30:00,45.9,44.0,30.37,ESE,108,0.0,0.0,93,0.00,,---,0.00,VWS V14.01,2013-11-22 04:30:00,
2013-11-21 23:33:00,45.9,44.0,30.37,ESE,108,0.0,0.0,93,0.00,,---,0.00,VWS V14.01,2013-11-22 04:33:00,
2013-11-21 23:38:00,46.0,44.1,30.37,ESE,108,0.0,0.0,93,0.00,,---,0.00,VWS V14.01,2013-11-22 04:38:00,
2013-11-21 23:43:00,46.0,44.1,30.37,ESE,108,0.0,0.0,93,0.00,,---,0.00,VWS V14.01,2013-11-22 04:43:00,
2013-11-21 23:48:00,46.0,44.1,30.36,ESE,108,0.0,0.0,93,0.00,,---,0.00,VWS V14.01,2013-11-22 04:48:00,
2013-11-21 23:53:00,46.0,44.1,30.36,ESE,108,0.0,0.0,93,0.00,,---,0.00,VWS V14.01,2013-11-22 04:53:00,
2013-11-21 23:58:00,46.0,44.1,30.36,ESE,108,0.0,0.0,93,0.00,,---,0.00,VWS V14.01,2013-11-22 04:58:00,